Friday, August 29, 2014, 4:21 PM EDT

KUNV, State College, University Park Airport

Location: State College, PA, United States Lat: 40.85
Local Time: 4:21 PM EDT (20:21 GMT) Lon: -77.85
Time Zone: US/Eastern Elev: 1240 ft

Show me the last for .
Show Decoded

2014-08-29 15:53 METAR KUNV 291953Z VRB05KT 10SM SKC 23/12 A3018 =
2014-08-29 14:53 METAR KUNV 291853Z VRB05KT 10SM SKC 22/11 A3019 =
2014-08-29 13:53 METAR KUNV 291753Z 11007KT 10SM FEW070 21/11 A3021 =
2014-08-29 12:53 METAR KUNV 291653Z 10007KT 10SM FEW070 20/10 A3021 =
2014-08-29 11:53 METAR KUNV 291553Z VRB04KT 10SM FEW100 19/12 A3023 =
2014-08-29 10:53 METAR KUNV 291453Z VRB04KT 10SM SKC 17/12 A3024 =
2014-08-29 09:53 METAR KUNV 291353Z 00000KT 10SM SKC 13/11 A3025 =
2014-08-29 08:53 METAR KUNV 291253Z 00000KT 10SM SKC 13/11 A3022 =
2014-08-29 07:53 METAR KUNV 291153Z 00000KT 10SM SKC 11/10 A3022 =
2014-08-29 06:53 METAR KUNV 291053Z 00000KT 10SM SKC 10/09 A3022 =
2014-08-29 05:53 METAR KUNV 290953Z 00000KT 10SM SKC 09/08 A3020 =
2014-08-29 05:35 METAR KUNV 290935Z AUTO 00000KT 10SM SCT100 10/09 A3019 RMK AO2 T00950085 =
2014-08-29 05:15 METAR KUNV 290915Z AUTO 29003KT 10SM CLR 10/09 A3018 RMK AO2 T00970093 =
2014-08-29 04:55 METAR KUNV 290855Z AUTO 00000KT 10SM SCT085 10/09 A3017 RMK AO2 T01000092 =
2014-08-29 04:35 METAR KUNV 290835Z AUTO 00000KT 10SM SCT075 SCT085 SCT100 10/10 A3017 RMK AO2
                 T01000095 =
2014-08-29 04:15 METAR KUNV 290815Z AUTO 00000KT 10SM SCT065 SCT085 SCT110 10/09 A3017 RMK AO2
                 T00980093 =
2014-08-29 03:35 METAR KUNV 290735Z AUTO 00000KT 10SM CLR 11/10 A3015 RMK AO2 T01130095 =
2014-08-29 03:15 METAR KUNV 290715Z AUTO 00000KT 10SM SCT070 SCT085 11/10 A3016 RMK AO2 T01130096
                 =
2014-08-29 02:55 METAR KUNV 290655Z AUTO 00000KT 10SM SCT055 SCT070 SCT090 11/10 A3016 RMK AO2
                 T01050098 =
2014-08-29 02:35 METAR KUNV 290635Z AUTO 00000KT 10SM SCT070 SCT075 SCT090 12/10 A3016 RMK AO2
                 T01200095 =
2014-08-29 02:15 METAR KUNV 290615Z AUTO 00000KT 10SM SCT065 SCT090 12/10 A3016 RMK AO2 T01210100
                 =
2014-08-29 01:55 METAR KUNV 290555Z AUTO 00000KT 10SM SCT065 SCT080 SCT090 12/10 A3017 RMK AO2
                 T01150101 10195 20113 =
2014-08-29 01:35 METAR KUNV 290535Z AUTO 19003KT 10SM SCT065 SCT075 12/10 A3017 RMK AO2 T01200097
                 =
2014-08-29 01:15 METAR KUNV 290515Z AUTO 35004KT 10SM SCT075 SCT090 13/10 A3017 RMK AO2 T01340096
                 =
2014-08-29 00:55 METAR KUNV 290455Z AUTO 00000KT 10SM SCT070 14/10 A3017 RMK AO2 T01410098 =
2014-08-29 00:35 METAR KUNV 290435Z AUTO 00000KT 10SM SCT070 SCT080 14/10 A3017 RMK AO2 T01370099
                 =
2014-08-29 00:15 METAR KUNV 290415Z AUTO 00000KT 10SM SCT070 SCT080 14/10 A3017 RMK AO2 T01350100
                 =
2014-08-28 23:55 METAR KUNV 290355Z AUTO 01003KT 10SM SCT070 SCT080 15/10 A3016 RMK AO2 T01460100
                 402310145 =
2014-08-28 23:35 METAR KUNV 290335Z AUTO 02005KT 10SM SCT055 SCT070 SCT080 15/10 A3016 RMK AO2
                 T01510097 =
2014-08-28 23:15 METAR KUNV 290315Z AUTO 02005KT 10SM SCT070 SCT090 SCT110 16/10 A3015 RMK AO2
                 T01550096 =
2014-08-28 22:55 METAR KUNV 290255Z AUTO 00000KT 10SM CLR 16/10 A3014 RMK AO2 T01550097 =
2014-08-28 22:35 METAR KUNV 290235Z AUTO 00000KT 10SM SCT095 16/10 A3014 RMK AO2 T01570100 =
2014-08-28 22:15 METAR KUNV 290215Z AUTO 00000KT 10SM CLR 17/10 A3013 RMK AO2 T01670099 =
2014-08-28 21:55 METAR KUNV 290155Z AUTO 00000KT 10SM CLR 17/10 A3013 RMK AO2 T01680100 =
2014-08-28 20:53 METAR KUNV 290053Z VRB05KT 10SM SKC 18/10 A3010 =
2014-08-28 19:53 METAR KUNV 282353Z 33006KT 10SM SKC 20/10 A3008 =
2014-08-28 18:53 METAR KUNV 282253Z 32007KT 10SM SKC 22/10 A3004 =
2014-08-28 17:53 METAR KUNV 282153Z 32007KT 10SM SKC 23/10 A3005 =
2014-08-28 16:53 METAR KUNV 282053Z 31006KT 10SM FEW060 23/11 A3005 =

Support USWX by starting your Amazon purchase here.